createdAt,value
2019-05-07T00:01:05.749Z,9.60
2019-05-07T00:03:34.791Z,9.80
2019-05-07T00:06:03.782Z,9.97
2019-05-07T00:08:32.908Z,9.40
2019-05-07T00:11:02.398Z,9.93
2019-05-07T00:13:33.362Z,10.13
2019-05-07T00:16:02.590Z,9.43
2019-05-07T00:18:32.318Z,8.93
2019-05-07T00:21:03.537Z,9.67
2019-05-07T00:23:32.579Z,10.80
2019-05-07T00:26:02.466Z,9.47
2019-05-07T00:28:32.455Z,9.57
2019-05-07T00:31:02.899Z,10.57
2019-05-07T00:33:32.823Z,10.23
2019-05-07T00:36:12.290Z,9.63
2019-05-07T00:38:43.184Z,9.87
2019-05-07T00:41:27.035Z,10.03
2019-05-07T00:43:57.355Z,10.33
2019-05-07T00:46:29.251Z,10.37
2019-05-07T00:48:58.323Z,9.97
2019-05-07T00:51:34.011Z,9.60
2019-05-07T00:54:03.223Z,10.03
2019-05-07T00:56:33.236Z,10.43
2019-05-07T00:59:02.426Z,9.83
2019-05-07T01:01:32.447Z,10.27
2019-05-07T01:04:02.664Z,10.73
2019-05-07T01:06:33.118Z,10.13
2019-05-07T01:09:03.262Z,12.43
2019-05-07T01:11:33.501Z,10.93
2019-05-07T01:14:02.931Z,10.50
2019-05-07T01:16:32.951Z,11.27
2019-05-07T01:19:02.296Z,10.40
2019-05-07T01:21:32.513Z,10.97
2019-05-07T01:24:03.307Z,10.70
2019-05-07T01:26:33.028Z,11.50
2019-05-07T01:29:03.318Z,10.90
2019-05-07T01:31:39.609Z,10.50
2019-05-07T01:34:33.427Z,11.00
2019-05-07T01:37:02.788Z,10.20
2019-05-07T01:39:32.648Z,12.13
2019-05-07T01:42:02.301Z,10.90
2019-05-07T01:44:32.576Z,11.53
2019-05-07T01:47:02.571Z,11.53
2019-05-07T01:49:33.079Z,10.87
2019-05-07T01:52:02.765Z,11.73
2019-05-07T01:54:33.316Z,11.63
2019-05-07T01:57:02.950Z,11.77
2019-05-07T01:59:32.318Z,10.10
2019-05-07T02:02:07.787Z,11.17
2019-05-07T02:04:52.656Z,10.50
2019-05-07T02:07:33.391Z,11.10
2019-05-07T02:10:24.441Z,11.00
2019-05-07T02:12:53.546Z,12.00
2019-05-07T02:15:22.716Z,11.50
2019-05-07T02:17:52.598Z,11.20
2019-05-07T02:20:22.554Z,10.23
2019-05-07T02:22:53.194Z,10.57
2019-05-07T02:25:22.479Z,11.40
2019-05-07T02:27:52.815Z,11.30
2019-05-07T02:30:23.918Z,11.47
2019-05-07T02:32:53.924Z,10.90
2019-05-07T02:35:23.688Z,10.50
2019-05-07T02:38:03.103Z,12.00
2019-05-07T02:40:43.493Z,11.90
2019-05-07T02:43:14.072Z,11.03
2019-05-07T02:46:19.786Z,13.00
2019-05-07T02:48:38.512Z,10.33
2019-05-07T02:51:13.740Z,11.83
2019-05-07T02:54:03.660Z,10.00
2019-05-07T02:56:33.558Z,10.40
2019-05-07T02:59:04.046Z,10.87
2019-05-07T03:01:33.805Z,11.10
2019-05-07T03:04:03.680Z,10.67
2019-05-07T03:06:33.954Z,10.60
2019-05-07T03:09:03.447Z,11.07
2019-05-07T03:11:34.043Z,10.77
2019-05-07T03:14:03.454Z,11.50
2019-05-07T03:16:39.876Z,10.93
2019-05-07T03:19:04.288Z,11.53
2019-05-07T03:21:53.886Z,11.30
2019-05-07T03:24:43.830Z,11.03
2019-05-07T03:27:14.160Z,10.23
2019-05-07T03:29:47.241Z,10.93
2019-05-07T03:32:38.277Z,12.30
2019-05-07T03:35:17.087Z,11.97
2019-05-07T03:37:46.259Z,12.10
2019-05-07T03:40:15.457Z,12.23
2019-05-07T03:42:44.603Z,11.47
2019-05-07T03:45:33.612Z,12.37
2019-05-07T03:48:14.059Z,11.53
2019-05-07T03:50:43.580Z,10.77
2019-05-07T03:53:14.166Z,15.63
2019-05-07T03:55:44.599Z,14.10
2019-05-07T03:58:14.717Z,12.27
2019-05-07T04:00:44.722Z,11.50
2019-05-07T04:03:18.783Z,11.70
2019-05-07T04:05:44.559Z,11.30
2019-05-07T04:08:13.771Z,11.80
2019-05-07T04:10:44.118Z,11.10
2019-05-07T04:13:13.831Z,11.60
2019-05-07T04:15:44.032Z,11.63
2019-05-07T04:18:13.637Z,11.03
2019-05-07T04:20:43.803Z,11.33
2019-05-07T04:23:13.862Z,11.60
2019-05-07T04:26:03.841Z,12.27
2019-05-07T04:29:05.817Z,11.40
2019-05-07T04:31:37.278Z,11.43
2019-05-07T04:34:14.715Z,11.80
2019-05-07T04:36:46.409Z,13.13
2019-05-07T04:39:15.475Z,11.30
2019-05-07T04:41:44.480Z,11.40
2019-05-07T04:44:14.256Z,10.77
2019-05-07T04:46:47.738Z,11.57
2019-05-07T04:49:14.313Z,10.90
2019-05-07T04:52:05.106Z,10.57
2019-05-07T04:54:34.233Z,10.90
2019-05-07T04:57:03.841Z,11.50
2019-05-07T04:59:33.212Z,10.80
2019-05-07T05:02:09.993Z,11.40
2019-05-07T05:04:39.106Z,11.83
2019-05-07T05:07:08.156Z,10.30
2019-05-07T05:09:37.171Z,12.30
2019-05-07T05:12:06.209Z,11.90
2019-05-07T05:14:35.185Z,11.80
2019-05-07T05:17:04.218Z,11.67
2019-05-07T05:19:33.204Z,11.90
2019-05-07T05:22:16.608Z,12.27
2019-05-07T05:24:47.577Z,10.70
2019-05-07T05:27:16.584Z,11.87
2019-05-07T05:29:45.515Z,11.50
2019-05-07T05:32:14.765Z,11.50
2019-05-07T05:34:43.819Z,11.13
2019-05-07T05:37:12.888Z,10.83
2019-05-07T05:39:42.599Z,10.30
2019-05-07T05:42:22.625Z,11.23
2019-05-07T05:44:52.495Z,11.50
2019-05-07T05:47:22.212Z,12.57
2019-05-07T05:49:53.290Z,11.60
2019-05-07T05:52:37.880Z,11.30
2019-05-07T05:55:13.705Z,12.10
2019-05-07T05:57:51.964Z,11.60
2019-05-07T06:00:38.358Z,11.97
2019-05-07T06:03:35.858Z,11.70
2019-05-07T06:06:26.123Z,13.20
2019-05-07T06:09:02.536Z,10.90
2019-05-07T06:11:42.924Z,10.83
2019-05-07T06:14:17.881Z,11.60
2019-05-07T06:16:52.891Z,12.03
2019-05-07T06:19:42.406Z,12.40
2019-05-07T06:22:28.798Z,10.80
2019-05-07T06:25:03.974Z,13.53
2019-05-07T06:27:33.036Z,12.50
2019-05-07T06:30:04.553Z,11.30
2019-05-07T06:32:32.865Z,11.40
2019-05-07T06:35:03.144Z,11.87
2019-05-07T06:37:32.360Z,10.23
2019-05-07T06:40:29.267Z,9.80
2019-05-07T06:43:03.945Z,10.40
2019-05-07T06:45:42.219Z,11.73
2019-05-07T06:48:12.693Z,10.47
2019-05-07T06:50:56.659Z,10.30
2019-05-07T06:53:34.584Z,10.30
2019-05-07T06:56:07.025Z,9.10
2019-05-07T06:58:47.365Z,9.17
2019-05-07T07:01:38.517Z,9.77
2019-05-07T07:04:14.756Z,9.77
2019-05-07T07:07:27.427Z,7.90
2019-05-07T07:09:56.620Z,7.87
2019-05-07T07:12:27.222Z,8.10
2019-05-07T07:14:58.077Z,8.60
2019-05-07T07:17:27.045Z,8.73
2019-05-07T07:19:56.031Z,7.90
2019-05-07T07:22:24.981Z,8.07
2019-05-07T07:24:54.141Z,7.93
2019-05-07T07:27:23.132Z,7.20
2019-05-07T07:29:58.610Z,6.97
2019-05-07T07:32:33.797Z,7.27
2019-05-07T07:35:02.944Z,7.70
2019-05-07T07:37:38.876Z,7.63
2019-05-07T07:40:25.961Z,7.00
2019-05-07T07:42:55.044Z,7.37
2019-05-07T07:45:24.096Z,9.00
2019-05-07T07:47:53.199Z,8.10
2019-05-07T07:50:22.539Z,8.20
2019-05-07T07:52:52.994Z,7.50
2019-05-07T07:55:27.487Z,10.90
2019-05-07T07:58:04.526Z,8.17
2019-05-07T08:00:43.332Z,7.60
2019-05-07T08:03:13.404Z,6.97
2019-05-07T08:05:43.819Z,8.00
2019-05-07T08:08:12.986Z,7.90
2019-05-07T08:10:42.607Z,7.30
2019-05-07T08:13:12.278Z,7.00
2019-05-07T08:15:42.993Z,7.47
2019-05-07T08:18:12.147Z,9.20
2019-05-07T08:20:43.038Z,7.27
2019-05-07T08:23:12.263Z,7.60
2019-05-07T08:25:52.493Z,7.50
2019-05-07T08:28:23.289Z,7.73
2019-05-07T08:31:04.629Z,6.70
2019-05-07T08:33:37.598Z,8.30
2019-05-07T08:36:17.076Z,8.57
2019-05-07T08:38:52.824Z,8.07
2019-05-07T08:41:22.485Z,7.90
2019-05-07T08:44:07.295Z,7.93
2019-05-07T08:46:43.353Z,7.13
2019-05-07T08:49:12.762Z,6.80
2019-05-07T08:51:42.644Z,8.63
2019-05-07T08:54:12.360Z,5.07
2019-05-07T08:56:42.536Z,5.97
2019-05-07T08:59:12.379Z,6.57
2019-05-07T09:01:43.303Z,6.50
2019-05-07T09:04:13.484Z,8.83
2019-05-07T09:06:43.173Z,8.57
2019-05-07T09:09:13.150Z,8.10
2019-05-07T09:11:42.699Z,9.13
2019-05-07T09:14:12.627Z,6.50
2019-05-07T09:16:42.729Z,6.90
2019-05-07T09:19:12.845Z,6.00
2019-05-07T09:21:42.922Z,4.90
2019-05-07T09:24:12.395Z,5.00
2019-05-07T09:26:58.933Z,4.10
2019-05-07T09:30:04.968Z,4.50
2019-05-07T09:32:42.436Z,4.90
2019-05-07T09:35:14.736Z,5.20
2019-05-07T09:37:43.745Z,5.20
2019-05-07T09:40:12.729Z,4.70
2019-05-07T09:42:42.226Z,4.97
2019-05-07T09:45:12.131Z,4.27
2019-05-07T09:47:41.809Z,4.63
2019-05-07T09:50:11.953Z,4.53
2019-05-07T09:52:42.737Z,5.30
2019-05-07T09:55:17.181Z,4.60
2019-05-07T09:57:42.656Z,4.70
2019-05-07T10:00:12.375Z,3.80
2019-05-07T10:02:42.463Z,3.70
2019-05-07T10:05:11.616Z,4.17
2019-05-07T10:07:42.402Z,4.50
2019-05-07T10:10:12.013Z,3.87
2019-05-07T10:13:01.855Z,3.50
2019-05-07T10:15:33.053Z,3.47
2019-05-07T10:18:07.964Z,3.50
2019-05-07T10:20:37.023Z,3.40
2019-05-07T10:23:07.641Z,3.30
2019-05-07T10:25:39.717Z,3.60
2019-05-07T10:28:08.882Z,4.13
2019-05-07T10:30:37.873Z,4.73
2019-05-07T10:33:06.842Z,4.50
2019-05-07T10:35:35.999Z,4.67
2019-05-07T10:38:05.012Z,3.53
2019-05-07T10:40:34.038Z,3.53
2019-05-07T10:43:03.043Z,3.90
2019-05-07T10:45:48.760Z,4.17
2019-05-07T10:48:24.276Z,3.67
2019-05-07T10:50:54.269Z,4.00
2019-05-07T10:53:23.376Z,4.10
2019-05-07T10:55:52.412Z,3.87
2019-05-07T10:58:21.463Z,3.80
2019-05-07T11:00:52.305Z,4.07
2019-05-07T11:03:21.909Z,3.97
2019-05-07T11:05:51.031Z,4.67
2019-05-07T11:08:21.800Z,4.67
2019-05-07T11:10:52.190Z,4.73
2019-05-07T11:13:21.849Z,3.73
2019-05-07T11:15:54.486Z,4.83
2019-05-07T11:18:32.376Z,4.17
2019-05-07T11:21:03.031Z,4.33
2019-05-07T11:23:32.757Z,4.50
2019-05-07T11:26:02.543Z,3.47
2019-05-07T11:28:32.478Z,4.37
2019-05-07T11:31:02.502Z,4.40
2019-05-07T11:33:32.609Z,4.40
2019-05-07T11:36:02.275Z,5.87
2019-05-07T11:38:33.422Z,3.97
2019-05-07T11:41:02.491Z,3.90
2019-05-07T11:43:48.951Z,3.57
2019-05-07T11:46:22.285Z,4.73
2019-05-07T11:48:59.702Z,4.10
2019-05-07T11:51:42.605Z,3.53
2019-05-07T11:54:12.964Z,4.00
2019-05-07T11:56:42.379Z,4.17
2019-05-07T11:59:13.370Z,4.80
2019-05-07T12:01:47.762Z,4.20
2019-05-07T12:04:16.307Z,3.73
2019-05-07T12:06:45.336Z,4.00
2019-05-07T12:09:14.337Z,4.30
2019-05-07T12:11:43.350Z,4.30
2019-05-07T12:14:12.561Z,3.90
2019-05-07T12:16:42.526Z,4.43
2019-05-07T12:19:12.997Z,4.00
2019-05-07T12:21:42.688Z,4.40
2019-05-07T12:24:12.546Z,4.70
2019-05-07T12:26:43.597Z,4.03
2019-05-07T12:29:12.661Z,3.90
2019-05-07T12:32:02.478Z,4.07
2019-05-07T12:34:44.091Z,4.07
2019-05-07T12:37:13.079Z,4.27
2019-05-07T12:39:42.411Z,3.80
2019-05-07T12:42:12.020Z,4.10
2019-05-07T12:44:42.493Z,4.40
2019-05-07T12:47:12.034Z,3.73
2019-05-07T12:49:42.875Z,4.23
2019-05-07T12:52:24.811Z,4.20
2019-05-07T12:55:12.823Z,4.10
2019-05-07T12:57:42.149Z,4.20
2019-05-07T13:00:28.940Z,6.20
2019-05-07T13:03:18.181Z,3.87
2019-05-07T13:05:47.188Z,4.10
2019-05-07T13:08:16.358Z,4.10
2019-05-07T13:10:45.535Z,4.10
2019-05-07T13:13:14.523Z,4.07
2019-05-07T13:15:43.514Z,5.20
2019-05-07T13:18:12.948Z,4.40
2019-05-07T13:20:41.986Z,4.27
2019-05-07T13:23:11.973Z,4.07
2019-05-07T13:25:42.976Z,3.53
2019-05-07T13:28:11.985Z,4.80
2019-05-07T13:30:43.553Z,4.23
2019-05-07T13:33:12.312Z,5.00
2019-05-07T13:35:41.967Z,3.73
2019-05-07T13:38:32.142Z,4.00
2019-05-07T13:41:19.739Z,4.17
2019-05-07T13:44:03.565Z,5.30
2019-05-07T13:46:33.221Z,4.73
2019-05-07T13:49:02.224Z,3.93
2019-05-07T13:51:33.617Z,5.10
2019-05-07T13:54:02.241Z,5.50
2019-05-07T13:56:32.655Z,4.63
2019-05-07T13:59:02.371Z,4.97
2019-05-07T14:01:38.512Z,4.80
2019-05-07T14:04:07.606Z,5.30
2019-05-07T14:06:39.819Z,4.93
2019-05-07T14:09:12.299Z,5.47
2019-05-07T14:11:42.335Z,4.50
2019-05-07T14:14:12.314Z,4.70
2019-05-07T14:16:42.488Z,4.30
2019-05-07T14:19:12.951Z,5.53
2019-05-07T14:21:42.369Z,4.93
2019-05-07T14:24:12.420Z,4.40
2019-05-07T14:26:42.404Z,5.50
2019-05-07T14:29:11.428Z,4.40
2019-05-07T14:31:42.502Z,4.73
2019-05-07T14:34:23.274Z,5.27
2019-05-07T14:37:02.325Z,4.87
2019-05-07T14:39:32.674Z,3.70
2019-05-07T14:42:03.643Z,5.33
2019-05-07T14:44:48.681Z,6.30
2019-05-07T14:47:18.768Z,4.20
2019-05-07T14:49:48.162Z,4.13
2019-05-07T14:52:28.934Z,4.00
2019-05-07T14:54:47.953Z,5.43
2019-05-07T14:57:16.966Z,5.00
2019-05-07T14:59:46.350Z,5.53
2019-05-07T15:02:15.434Z,6.40
2019-05-07T15:04:44.380Z,6.50
2019-05-07T15:07:13.400Z,4.30
2019-05-07T15:09:42.853Z,4.90
2019-05-07T15:12:14.681Z,7.27
2019-05-07T15:14:42.499Z,4.07
2019-05-07T15:17:26.683Z,4.93
2019-05-07T15:19:55.816Z,4.87
2019-05-07T15:22:49.402Z,4.03
2019-05-07T15:25:14.841Z,4.50
2019-05-07T15:27:45.308Z,3.77
2019-05-07T15:30:14.428Z,6.90
2019-05-07T15:32:43.494Z,5.63
2019-05-07T15:35:12.688Z,4.40
2019-05-07T15:37:42.761Z,7.37
2019-05-07T15:40:11.923Z,4.20
2019-05-07T15:42:42.109Z,3.70
2019-05-07T15:45:12.511Z,4.43
2019-05-07T15:47:45.296Z,3.60
2019-05-07T15:50:14.284Z,5.60
2019-05-07T15:53:12.393Z,5.17
2019-05-07T15:55:41.833Z,4.50
2019-05-07T15:58:12.110Z,4.17
2019-05-07T16:00:42.554Z,3.87
2019-05-07T16:03:23.099Z,3.93
2019-05-07T16:05:53.036Z,4.10
2019-05-07T16:08:22.710Z,4.33
2019-05-07T16:10:53.102Z,4.40
2019-05-07T16:13:26.328Z,3.67
2019-05-07T16:15:56.055Z,3.77
2019-05-07T16:18:30.118Z,3.60
2019-05-07T16:20:59.263Z,4.20
2019-05-07T16:23:28.308Z,3.40
2019-05-07T16:25:57.277Z,4.00
2019-05-07T16:28:26.411Z,4.90
2019-05-07T16:30:55.467Z,3.60
2019-05-07T16:33:24.423Z,3.23
2019-05-07T16:35:53.417Z,3.63
2019-05-07T16:38:22.405Z,3.43
2019-05-07T16:40:52.163Z,3.50
2019-05-07T16:43:22.096Z,3.10
2019-05-07T16:45:51.881Z,3.60
2019-05-07T16:48:23.123Z,3.40
2019-05-07T16:50:52.355Z,3.13
2019-05-07T16:53:29.688Z,3.70
2019-05-07T16:55:52.345Z,3.53
2019-05-07T16:58:35.064Z,3.13
2019-05-07T17:01:06.452Z,2.80
2019-05-07T17:03:42.691Z,3.90
2019-05-07T17:06:12.422Z,3.63
2019-05-07T17:09:02.438Z,3.07
2019-05-07T17:11:32.050Z,3.60
2019-05-07T17:14:02.421Z,3.00
2019-05-07T17:16:31.862Z,3.33
2019-05-07T17:19:02.585Z,2.80
2019-05-07T17:21:32.442Z,3.40
2019-05-07T17:24:02.555Z,3.40
2019-05-07T17:26:31.793Z,3.30
2019-05-07T17:29:02.638Z,3.37
2019-05-07T17:31:31.920Z,3.77
2019-05-07T17:34:02.222Z,3.07
2019-05-07T17:36:33.107Z,3.40
2019-05-07T17:39:02.851Z,2.70
2019-05-07T17:41:32.357Z,3.10
2019-05-07T17:44:02.729Z,3.07
2019-05-07T17:46:32.422Z,2.93
2019-05-07T17:49:02.427Z,3.30
2019-05-07T17:51:43.575Z,3.40
2019-05-07T17:54:13.467Z,3.30
2019-05-07T17:56:42.760Z,3.60
2019-05-07T17:59:12.327Z,3.27
2019-05-07T18:01:56.027Z,2.97
2019-05-07T18:04:27.091Z,3.23
2019-05-07T18:06:56.104Z,3.67
2019-05-07T18:09:25.435Z,3.47
2019-05-07T18:11:54.540Z,3.17
2019-05-07T18:14:23.589Z,3.63
2019-05-07T18:17:14.715Z,3.70
2019-05-07T18:19:45.994Z,3.90
2019-05-07T18:22:15.055Z,3.60
2019-05-07T18:24:44.226Z,4.43
2019-05-07T18:27:22.188Z,3.73
2019-05-07T18:29:52.200Z,4.23
2019-05-07T18:32:22.010Z,4.50
2019-05-07T18:34:51.960Z,3.80
2019-05-07T18:37:22.934Z,3.77
2019-05-07T18:39:52.260Z,4.30
2019-05-07T18:42:22.188Z,4.10
2019-05-07T18:44:52.495Z,3.90
2019-05-07T18:47:22.331Z,4.07
2019-05-07T18:49:51.995Z,4.43
2019-05-07T18:52:22.996Z,4.10
2019-05-07T18:54:52.115Z,4.30
2019-05-07T18:57:22.193Z,3.43
2019-05-07T18:59:53.188Z,3.87
2019-05-07T19:02:22.620Z,3.63
2019-05-07T19:04:51.997Z,3.70
2019-05-07T19:07:23.062Z,3.53
2019-05-07T19:09:51.906Z,4.37
2019-05-07T19:12:23.293Z,3.30
2019-05-07T19:14:52.309Z,4.10
2019-05-07T19:17:22.213Z,3.73
2019-05-07T19:19:52.559Z,4.40
2019-05-07T19:22:22.203Z,3.60
2019-05-07T19:24:52.687Z,3.90
2019-05-07T19:27:22.131Z,4.03
2019-05-07T19:29:51.089Z,4.33
2019-05-07T19:32:20.096Z,4.10
2019-05-07T19:34:49.199Z,3.53
2019-05-07T19:37:19.161Z,3.80
2019-05-07T19:39:48.166Z,3.70
2019-05-07T19:42:17.301Z,4.07
2019-05-07T19:44:46.296Z,3.73
2019-05-07T19:47:15.497Z,3.67
2019-05-07T19:49:44.613Z,3.83
2019-05-07T19:52:13.697Z,3.37
2019-05-07T19:54:47.152Z,3.93
2019-05-07T19:57:20.475Z,3.47
2019-05-07T19:59:49.084Z,3.50
2019-05-07T20:02:22.854Z,3.77
2019-05-07T20:04:52.276Z,3.77
2019-05-07T20:07:21.368Z,3.43
2019-05-07T20:09:52.475Z,4.33
2019-05-07T20:12:21.363Z,3.70
2019-05-07T20:14:51.735Z,4.10
2019-05-07T20:17:22.110Z,3.80
2019-05-07T20:19:52.741Z,3.50
2019-05-07T20:22:22.204Z,3.43
2019-05-07T20:24:52.719Z,4.20
2019-05-07T20:27:23.207Z,3.90
2019-05-07T20:29:52.362Z,4.70
2019-05-07T20:32:22.534Z,4.20
2019-05-07T20:34:52.074Z,3.70
2019-05-07T20:37:22.103Z,3.60
2019-05-07T20:39:52.399Z,3.40
2019-05-07T20:42:23.166Z,4.17
2019-05-07T20:44:52.331Z,4.03
2019-05-07T20:47:21.979Z,4.13
2019-05-07T20:49:51.272Z,5.27
2019-05-07T20:52:22.784Z,5.03
2019-05-07T20:55:03.338Z,4.90
2019-05-07T20:57:38.007Z,4.97
2019-05-07T21:00:09.737Z,5.37
2019-05-07T21:02:47.223Z,5.17
2019-05-07T21:05:09.427Z,4.77
2019-05-07T21:07:38.566Z,4.60
2019-05-07T21:10:07.692Z,4.30
2019-05-07T21:12:36.594Z,4.97
2019-05-07T21:15:05.817Z,4.93
2019-05-07T21:17:34.869Z,4.40
2019-05-07T21:20:03.979Z,3.73
2019-05-07T21:22:33.125Z,4.17
2019-05-07T21:25:02.796Z,4.30
2019-05-07T21:27:32.147Z,4.37
2019-05-07T21:30:02.489Z,4.30
2019-05-07T21:32:32.510Z,3.67
2019-05-07T21:35:01.638Z,4.43
2019-05-07T21:37:32.344Z,4.57
2019-05-07T21:40:02.449Z,5.40
2019-05-07T21:42:32.165Z,4.70
2019-05-07T21:45:02.070Z,5.30
2019-05-07T21:47:32.649Z,5.30
2019-05-07T21:50:02.912Z,4.20
2019-05-07T21:52:34.460Z,5.00
2019-05-07T21:55:16.148Z,4.90
2019-05-07T21:57:54.594Z,4.47
2019-05-07T22:00:42.767Z,6.13
2019-05-07T22:03:14.631Z,5.10
2019-05-07T22:05:44.314Z,5.10
2019-05-07T22:08:13.321Z,4.30
2019-05-07T22:10:42.402Z,5.00
2019-05-07T22:13:12.419Z,4.53
2019-05-07T22:15:42.338Z,4.60
2019-05-07T22:18:12.065Z,4.90
2019-05-07T22:20:42.630Z,4.50
2019-05-07T22:23:11.715Z,5.47
2019-05-07T22:25:42.161Z,4.73
2019-05-07T22:28:13.338Z,4.60
2019-05-07T22:31:04.830Z,5.27
2019-05-07T22:33:50.043Z,5.90
2019-05-07T22:36:18.975Z,5.63
2019-05-07T22:38:47.982Z,4.97
2019-05-07T22:41:17.191Z,6.10
2019-05-07T22:43:46.276Z,5.83
2019-05-07T22:46:15.435Z,6.23
2019-05-07T22:48:44.503Z,5.73
2019-05-07T22:51:13.614Z,4.80
2019-05-07T22:53:42.530Z,5.70
2019-05-07T22:56:12.002Z,5.07
2019-05-07T22:58:49.262Z,4.97
2019-05-07T23:01:18.518Z,5.83
2019-05-07T23:03:47.512Z,5.00
2019-05-07T23:06:16.616Z,5.07
2019-05-07T23:08:45.652Z,5.63
2019-05-07T23:11:14.623Z,5.50
2019-05-07T23:13:43.691Z,5.07
2019-05-07T23:16:12.814Z,4.80
2019-05-07T23:18:42.828Z,5.97
2019-05-07T23:21:12.152Z,5.23
2019-05-07T23:23:42.201Z,6.20
2019-05-07T23:26:14.296Z,5.83
2019-05-07T23:28:42.171Z,6.43
2019-05-07T23:31:12.069Z,6.50
2019-05-07T23:33:41.372Z,5.50
2019-05-07T23:36:12.793Z,5.63
2019-05-07T23:38:42.653Z,7.00
2019-05-07T23:41:22.433Z,7.03
2019-05-07T23:44:08.899Z,6.27
2019-05-07T23:46:37.996Z,6.93
2019-05-07T23:49:07.019Z,6.73
2019-05-07T23:51:36.100Z,7.17
2019-05-07T23:54:05.115Z,6.53
2019-05-07T23:56:34.121Z,6.80
2019-05-07T23:59:03.182Z,7.67
